Time;durP1;ratioP1;P1;durP2;ratioP2;P2;SDS_P1;SDS_P2;PMS_P1;PMS_P2;Temp;Humidity;BMP_temperature;BMP_pressure;BME280_temperature;BME280_humidity;BME280_pressure;Samples;Min_cycle;Max_cycle;Signal;HPM_P1;HPM_P2
2022/12/18 00:00:41;;;;;;;11.97;7.50;;;;;;;;;;1720415;81;21092;-58
2022/12/18 00:03:08;;;;;;;12.60;7.87;;;;;;;;;;1719677;81;21065;-58
2022/12/18 00:05:34;;;;;;;10.90;6.40;;;;;;;;;;1718323;81;21066;-58
2022/12/18 00:08:00;;;;;;;10.23;6.00;;;;;;;;;;1719500;81;22487;-56
2022/12/18 00:10:27;;;;;;;9.33;5.57;;;;;;;;;;1714752;81;21037;-59
2022/12/18 00:12:53;;;;;;;10.50;6.40;;;;;;;;;;1720842;81;21005;-56
2022/12/18 00:15:19;;;;;;;9.83;6.47;;;;;;;;;;1717243;81;21086;-56
2022/12/18 00:17:45;;;;;;;7.77;5.97;;;;;;;;;;1719313;81;21184;-57
2022/12/18 00:20:12;;;;;;;10.47;6.77;;;;;;;;;;1715457;81;22061;-57
2022/12/18 00:22:38;;;;;;;8.43;5.43;;;;;;;;;;1721825;81;20972;-56
2022/12/18 00:25:04;;;;;;;8.73;6.23;;;;;;;;;;1721304;81;21013;-56
2022/12/18 00:27:32;;;;;;;10.23;6.83;;;;;;;;;;1723265;81;21075;-55
2022/12/18 00:29:58;;;;;;;8.57;6.27;;;;;;;;;;1716094;81;21001;-57
2022/12/18 00:32:24;;;;;;;10.93;6.17;;;;;;;;;;1721643;81;21807;-56
2022/12/18 00:34:50;;;;;;;10.23;6.60;;;;;;;;;;1725213;81;20998;-57
2022/12/18 00:37:17;;;;;;;12.87;6.57;;;;;;;;;;1721963;81;20998;-55
2022/12/18 00:39:43;;;;;;;8.60;5.63;;;;;;;;;;1721054;81;20997;-55
2022/12/18 00:44:54;;;;;;;8.13;6.20;;;;;;;;;;1718401;81;21805;-55
2022/12/18 00:47:21;;;;;;;9.13;5.53;;;;;;;;;;1718612;81;21067;-56
2022/12/18 00:49:47;;;;;;;8.73;5.57;;;;;;;;;;1712034;81;21562;-55
2022/12/18 00:52:13;;;;;;;6.00;4.67;;;;;;;;;;1703757;82;21028;-55
2022/12/18 00:54:39;;;;;;;7.27;5.43;;;;;;;;;;1711041;82;21010;-56
2022/12/18 00:57:05;;;;;;;9.33;6.40;;;;;;;;;;1709549;82;21943;-57
2022/12/18 00:59:31;;;;;;;9.47;7.03;;;;;;;;;;1710579;82;21022;-55
2022/12/18 01:01:58;;;;;;;8.40;5.53;;;;;;;;;;1706440;82;20982;-55
2022/12/18 01:04:24;;;;;;;9.90;6.37;;;;;;;;;;1712732;82;20992;-56
2022/12/18 01:06:51;;;;;;;9.97;6.37;;;;;;;;;;1708802;82;21022;-54
2022/12/18 01:09:18;;;;;;;9.13;6.83;;;;;;;;;;1706981;82;21770;-54
2022/12/18 01:11:45;;;;;;;9.90;6.53;;;;;;;;;;1707974;82;21011;-56
2022/12/18 01:14:11;;;;;;;12.23;6.23;;;;;;;;;;1711363;82;20978;-55
2022/12/18 01:16:38;;;;;;;10.33;6.47;;;;;;;;;;1707612;82;21046;-55
2022/12/18 01:19:04;;;;;;;9.83;6.17;;;;;;;;;;1707597;82;21128;-55
2022/12/18 01:21:30;;;;;;;9.77;5.43;;;;;;;;;;1708152;82;21928;-56
2022/12/18 01:23:58;;;;;;;11.03;7.23;;;;;;;;;;1703461;82;21511;-54
2022/12/18 01:26:24;;;;;;;9.53;7.20;;;;;;;;;;1709170;82;21142;-55
2022/12/18 01:28:50;;;;;;;10.67;6.60;;;;;;;;;;1705798;82;21387;-55
2022/12/18 01:31:22;;;;;;;12.47;7.50;;;;;;;;;;1704090;82;21089;-54
2022/12/18 01:33:48;;;;;;;13.03;7.57;;;;;;;;;;1712892;82;21938;-53
2022/12/18 01:36:23;;;;;;;11.70;7.77;;;;;;;;;;1705478;82;21057;-54
2022/12/18 01:38:49;;;;;;;;;;;;;;;;;;1706485;82;21378;-56
2022/12/18 01:41:16;;;;;;;12.60;7.67;;;;;;;;;;1707419;82;20168;-53
2022/12/18 01:43:51;;;;;;;10.47;7.40;;;;;;;;;;1702040;82;21375;-54
2022/12/18 01:46:19;;;;;;;11.30;6.53;;;;;;;;;;1695872;82;22846;-55
2022/12/18 01:48:47;;;;;;;12.90;7.90;;;;;;;;;;1712983;81;21565;-54
2022/12/18 01:51:14;;;;;;;13.87;7.60;;;;;;;;;;1717358;81;21077;-53
2022/12/18 01:53:42;;;;;;;11.23;6.47;;;;;;;;;;1715789;81;21509;-54
2022/12/18 01:56:09;;;;;;;9.10;6.57;;;;;;;;;;1722490;81;21047;-54
2022/12/18 01:59:02;;;;;;;11.10;6.17;;;;;;;;;;1714195;81;21882;-53
2022/12/18 02:01:29;;;;;;;14.67;7.73;;;;;;;;;;1721162;81;21510;-52
2022/12/18 02:03:55;;;;;;;11.03;7.57;;;;;;;;;;1725100;81;21064;-54
2022/12/18 02:06:30;;;;;;;12.20;7.03;;;;;;;;;;1716411;81;21569;-54
2022/12/18 02:09:04;;;;;;;13.43;6.87;;;;;;;;;;1708975;81;21076;-54
2022/12/18 02:11:52;;;;;;;13.30;8.07;;;;;;;;;;1703685;81;23320;-54
2022/12/18 02:14:40;;;;;;;14.47;7.47;;;;;;;;;;1716912;81;21081;-53
2022/12/18 02:17:13;;;;;;;12.60;7.97;;;;;;;;;;1718418;81;21042;-52
2022/12/18 02:19:58;;;;;;;9.97;6.60;;;;;;;;;;1710778;81;21619;-53
2022/12/18 02:22:37;;;;;;;11.43;7.30;;;;;;;;;;1714441;81;21543;-53
2022/12/18 02:25:20;;;;;;;12.47;6.83;;;;;;;;;;1718885;81;21202;-52
2022/12/18 02:27:46;;;;;;;14.50;7.87;;;;;;;;;;1719668;81;21187;-52
2022/12/18 02:30:13;;;;;;;12.27;7.00;;;;;;;;;;1720804;81;21047;-54
2022/12/18 02:32:42;;;;;;;12.20;7.80;;;;;;;;;;1714347;81;21041;-53
2022/12/18 02:35:11;;;;;;;12.83;7.40;;;;;;;;;;1721299;81;21111;-53
2022/12/18 02:37:39;;;;;;;13.57;7.83;;;;;;;;;;1717062;81;21867;-52
2022/12/18 02:40:07;;;;;;;13.67;8.47;;;;;;;;;;1715861;81;21104;-51
2022/12/18 02:42:33;;;;;;;11.83;7.73;;;;;;;;;;1713713;81;21077;-51
2022/12/18 02:44:59;;;;;;;15.57;9.00;;;;;;;;;;1716951;81;21501;-52
2022/12/18 02:48:37;;;;;;;16.60;8.27;;;;;;;;;;1773038;78;27505;-51
2022/12/18 02:51:27;;;;;;;13.00;8.43;;;;;;;;;;1738486;80;21413;-55
2022/12/18 02:54:00;;;;;;;15.17;9.03;;;;;;;;;;1657407;83;21956;-53
2022/12/18 02:56:33;;;;;;;12.90;7.90;;;;;;;;;;1679003;83;21021;-52
2022/12/18 02:59:06;;;;;;;13.40;7.17;;;;;;;;;;1690712;82;20989;-55
2022/12/18 03:03:59;;;;;;;14.70;7.07;;;;;;;;;;1849810;75;27363;-55
2022/12/18 03:06:32;;;;;;;9.90;6.27;;;;;;;;;;1817088;77;21657;-54
2022/12/18 03:09:02;;;;;;;8.83;5.80;;;;;;;;;;1811987;77;21807;-54
2022/12/18 03:14:15;;;;;;;8.63;5.90;;;;;;;;;;1738155;80;21020;-54
2022/12/18 03:16:42;;;;;;;10.27;5.60;;;;;;;;;;1754078;79;21508;-54
2022/12/18 03:19:11;;;;;;;11.70;5.60;;;;;;;;;;1751099;79;21548;-54
2022/12/18 03:21:43;;;;;;;9.13;5.00;;;;;;;;;;1752714;79;21429;-54
2022/12/18 03:24:09;;;;;;;9.43;5.27;;;;;;;;;;1756624;80;21046;-54
2022/12/18 03:26:37;;;;;;;8.63;5.27;;;;;;;;;;1758646;79;21056;-54
2022/12/18 03:29:13;;;;;;;6.77;3.93;;;;;;;;;;1754318;79;21112;-54
2022/12/18 03:31:40;;;;;;;6.93;4.63;;;;;;;;;;1748544;80;21516;-53
2022/12/18 03:34:15;;;;;;;8.40;4.93;;;;;;;;;;1753124;80;22620;-54
2022/12/18 03:36:43;;;;;;;5.80;3.13;;;;;;;;;;1760253;80;21047;-54
2022/12/18 03:39:10;;;;;;;4.70;3.53;;;;;;;;;;1750625;80;21061;-54
2022/12/18 03:41:46;;;;;;;7.77;4.37;;;;;;;;;;1752579;80;21038;-54
2022/12/18 03:44:22;;;;;;;6.43;3.67;;;;;;;;;;1753967;80;21048;-54
2022/12/18 03:47:12;;;;;;;5.80;3.87;;;;;;;;;;1710775;81;22180;-54
2022/12/18 03:49:42;;;;;;;5.53;4.30;;;;;;;;;;1747738;80;21048;-54
2022/12/18 03:52:13;;;;;;;8.60;4.40;;;;;;;;;;1749243;80;21528;-55
2022/12/18 03:54:40;;;;;;;5.20;3.13;;;;;;;;;;1755848;79;21124;-55
2022/12/18 03:57:18;;;;;;;6.57;3.90;;;;;;;;;;1742498;79;21128;-55
2022/12/18 03:59:44;;;;;;;4.80;3.57;;;;;;;;;;1733468;80;21857;-56
2022/12/18 04:02:12;;;;;;;6.07;3.63;;;;;;;;;;1738056;80;21629;-56
2022/12/18 04:04:39;;;;;;;7.00;3.73;;;;;;;;;;1729467;80;21146;-56
2022/12/18 04:07:05;;;;;;;6.30;3.83;;;;;;;;;;1734928;80;21107;-56
2022/12/18 04:09:33;;;;;;;6.43;3.27;;;;;;;;;;1731751;80;21127;-56
2022/12/18 04:12:00;;;;;;;6.20;3.30;;;;;;;;;;1735206;80;22482;-56
2022/12/18 04:14:26;;;;;;;6.97;4.00;;;;;;;;;;1732597;80;21462;-56
2022/12/18 04:16:54;;;;;;;6.57;4.00;;;;;;;;;;1730726;80;21330;-56
2022/12/18 04:19:22;;;;;;;8.03;3.83;;;;;;;;;;1733385;80;21081;-56
2022/12/18 04:21:49;;;;;;;5.10;3.70;;;;;;;;;;1738015;80;21047;-56
2022/12/18 04:24:15;;;;;;;5.87;3.40;;;;;;;;;;1737083;80;21411;-56
2022/12/18 04:26:43;;;;;;;6.23;3.70;;;;;;;;;;1732272;80;21810;-56
2022/12/18 04:29:14;;;;;;;6.30;3.90;;;;;;;;;;1736895;80;21445;-56
2022/12/18 04:31:41;;;;;;;7.83;3.73;;;;;;;;;;1745610;80;21386;-56
2022/12/18 04:34:07;;;;;;;6.73;4.47;;;;;;;;;;1732988;80;21100;-56
2022/12/18 04:36:35;;;;;;;6.23;4.43;;;;;;;;;;1733086;80;21748;-56
2022/12/18 04:39:01;;;;;;;6.37;3.80;;;;;;;;;;1740257;80;21045;-56
2022/12/18 04:41:28;;;;;;;6.73;3.53;;;;;;;;;;1735102;80;21061;-56
2022/12/18 04:43:54;;;;;;;6.57;3.70;;;;;;;;;;1732383;80;21519;-56
2022/12/18 04:46:20;;;;;;;7.73;4.20;;;;;;;;;;1739302;80;21553;-56
2022/12/18 04:48:46;;;;;;;8.30;4.43;;;;;;;;;;1731274;80;21579;-56
2022/12/18 04:51:12;;;;;;;7.00;4.07;;;;;;;;;;1731135;80;22617;-56
2022/12/18 04:53:39;;;;;;;7.77;4.27;;;;;;;;;;1730678;80;21088;-56
2022/12/18 04:56:11;;;;;;;5.67;3.23;;;;;;;;;;1736188;80;21056;-56
2022/12/18 04:58:38;;;;;;;4.77;3.30;;;;;;;;;;1734940;80;21067;-56
2022/12/18 05:01:05;;;;;;;5.90;3.23;;;;;;;;;;1732460;80;21821;-56
2022/12/18 05:03:31;;;;;;;6.30;3.03;;;;;;;;;;1731557;80;21076;-55
2022/12/18 05:05:57;;;;;;;8.37;4.67;;;;;;;;;;1734834;80;21537;-55
2022/12/18 05:08:24;;;;;;;6.43;3.57;;;;;;;;;;1735834;80;21068;-55
2022/12/18 05:11:11;;;;;;;6.67;4.00;;;;;;;;;;1738604;80;21100;-55
2022/12/18 05:13:38;;;;;;;6.70;3.60;;;;;;;;;;1732016;80;22539;-54
2022/12/18 05:16:05;;;;;;;7.20;4.00;;;;;;;;;;1733889;80;21381;-53
2022/12/18 05:18:32;;;;;;;4.93;2.97;;;;;;;;;;1747503;80;21398;-54
2022/12/18 05:20:58;;;;;;;5.33;3.37;;;;;;;;;;1736176;80;21116;-53
2022/12/18 05:23:24;;;;;;;4.43;2.97;;;;;;;;;;1735509;80;21147;-53
2022/12/18 05:25:58;;;;;;;4.57;2.27;;;;;;;;;;1733033;80;21919;-54
2022/12/18 05:28:25;;;;;;;4.30;2.63;;;;;;;;;;1734701;80;21056;-53
2022/12/18 05:30:53;;;;;;;5.37;2.70;;;;;;;;;;1735852;80;21072;-55
2022/12/18 05:33:20;;;;;;;7.27;3.03;;;;;;;;;;1736687;80;21092;-53
2022/12/18 05:35:56;;;;;;;5.63;2.60;;;;;;;;;;1736012;80;21041;-53
2022/12/18 05:38:23;;;;;;;5.07;2.80;;;;;;;;;;1735756;80;21767;-54
2022/12/18 05:40:49;;;;;;;6.83;3.37;;;;;;;;;;1735159;80;20970;-53
2022/12/18 05:43:15;;;;;;;6.73;3.27;;;;;;;;;;1736147;80;20997;-53
2022/12/18 05:45:42;;;;;;;5.37;2.83;;;;;;;;;;1750081;80;21004;-53
2022/12/18 05:48:08;;;;;;;5.50;2.53;;;;;;;;;;1736167;80;20981;-53
2022/12/18 05:50:37;;;;;;;5.97;2.63;;;;;;;;;;1739749;80;21910;-53
2022/12/18 05:53:03;;;;;;;6.77;3.57;;;;;;;;;;1743955;80;20993;-53
2022/12/18 05:55:34;;;;;;;4.63;2.40;;;;;;;;;;1736907;80;21010;-52
2022/12/18 05:58:01;;;;;;;6.53;3.73;;;;;;;;;;1742410;80;20989;-52
2022/12/18 06:00:28;;;;;;;4.97;2.97;;;;;;;;;;1742853;80;21049;-53
2022/12/18 06:02:54;;;;;;;6.87;3.37;;;;;;;;;;1736199;80;22418;-53
2022/12/18 06:05:20;;;;;;;7.27;3.03;;;;;;;;;;1737025;80;21659;-52
2022/12/18 06:07:46;;;;;;;7.53;2.77;;;;;;;;;;1735555;80;20989;-53
2022/12/18 06:10:12;;;;;;;5.40;2.43;;;;;;;;;;1735940;80;21071;-52
2022/12/18 06:12:40;;;;;;;5.17;2.60;;;;;;;;;;1737429;80;21065;-52
2022/12/18 06:15:06;;;;;;;6.30;2.73;;;;;;;;;;1745435;80;21785;-53
2022/12/18 06:17:33;;;;;;;4.60;2.57;;;;;;;;;;1734415;80;21080;-52
2022/12/18 06:19:59;;;;;;;4.70;2.80;;;;;;;;;;1742620;80;21057;-53
2022/12/18 06:22:26;;;;;;;5.23;2.77;;;;;;;;;;1744396;80;21144;-52
2022/12/18 06:24:52;;;;;;;5.03;2.40;;;;;;;;;;1737604;80;21417;-52
2022/12/18 06:27:19;;;;;;;4.70;2.53;;;;;;;;;;1740016;80;21831;-52
2022/12/18 06:29:45;;;;;;;5.97;2.33;;;;;;;;;;1739372;80;21437;-52
2022/12/18 06:32:11;;;;;;;6.03;2.60;;;;;;;;;;1739187;80;21445;-52
2022/12/18 06:34:38;;;;;;;4.37;3.03;;;;;;;;;;1737700;80;21064;-51
2022/12/18 06:37:04;;;;;;;6.57;3.23;;;;;;;;;;1738205;80;21072;-51
2022/12/18 06:39:30;;;;;;;5.77;3.73;;;;;;;;;;1747729;80;21824;-51
2022/12/18 06:41:56;;;;;;;5.50;3.00;;;;;;;;;;1741112;80;21064;-52
2022/12/18 06:44:22;;;;;;;4.07;2.47;;;;;;;;;;1743360;80;21953;-51
2022/12/18 06:46:48;;;;;;;6.40;3.47;;;;;;;;;;1733985;80;21573;-52
2022/12/18 06:49:15;;;;;;;6.67;3.30;;;;;;;;;;1743400;80;21514;-51
2022/12/18 06:51:42;;;;;;;7.23;3.60;;;;;;;;;;1752107;80;21818;-52
2022/12/18 06:54:08;;;;;;;8.60;4.77;;;;;;;;;;1738130;80;21076;-51
2022/12/18 06:56:34;;;;;;;5.33;2.73;;;;;;;;;;1734831;80;22364;-51
2022/12/18 06:59:00;;;;;;;7.27;2.90;;;;;;;;;;1734720;80;21071;-51
2022/12/18 07:01:27;;;;;;;6.23;2.90;;;;;;;;;;1736759;80;21108;-51
2022/12/18 07:03:54;;;;;;;6.03;2.67;;;;;;;;;;1734660;80;21817;-51
2022/12/18 07:06:21;;;;;;;7.30;3.63;;;;;;;;;;1730235;80;21632;-51
2022/12/18 07:11:18;;;;;;;5.70;3.40;;;;;;;;;;1789116;78;27399;-50
2022/12/18 07:13:44;;;;;;;7.00;4.23;;;;;;;;;;1768248;79;21080;-50
2022/12/18 07:16:16;;;;;;;6.47;3.30;;;;;;;;;;1707954;82;21926;-51
2022/12/18 07:18:43;;;;;;;5.40;2.67;;;;;;;;;;1711100;82;21056;-50
2022/12/18 07:21:13;;;;;;;6.80;3.00;;;;;;;;;;1710267;81;21049;-51
2022/12/18 07:23:39;;;;;;;5.33;2.57;;;;;;;;;;1712929;81;21089;-50
2022/12/18 07:26:06;;;;;;;7.63;3.33;;;;;;;;;;1698956;81;21073;-50
2022/12/18 07:28:33;;;;;;;4.73;3.00;;;;;;;;;;1711980;81;21761;-50
2022/12/18 07:31:07;;;;;;;5.47;2.60;;;;;;;;;;1714699;81;21478;-50
2022/12/18 07:33:33;;;;;;;5.20;2.08;;;;;;;;;;1707946;82;21343;-50
2022/12/18 07:36:00;;;;;;;4.70;2.17;;;;;;;;;;1720636;81;21468;-50
2022/12/18 07:38:26;;;;;;;3.93;2.37;;;;;;;;;;1721566;81;21007;-51
2022/12/18 07:40:52;;;;;;;8.47;3.40;;;;;;;;;;1723384;81;22920;-51
2022/12/18 07:43:19;;;;;;;6.30;2.97;;;;;;;;;;1718585;81;21037;-50
2022/12/18 07:45:45;;;;;;;5.00;2.60;;;;;;;;;;1713272;81;21065;-51
2022/12/18 07:48:11;;;;;;;8.70;2.67;;;;;;;;;;1708583;83;21056;-51
2022/12/18 07:50:37;;;;;;;3.67;2.10;;;;;;;;;;1732778;80;21049;-51
2022/12/18 07:53:04;;;;;;;4.20;2.40;;;;;;;;;;1725387;81;21809;-51
2022/12/18 07:55:31;;;;;;;5.20;2.70;;;;;;;;;;1698008;82;21045;-50
2022/12/18 07:58:02;;;;;;;6.93;3.07;;;;;;;;;;1714925;82;21099;-50
2022/12/18 08:00:29;;;;;;;9.63;4.13;;;;;;;;;;1733661;80;21117;-50
2022/12/18 08:02:55;;;;;;;5.13;2.53;;;;;;;;;;1741403;81;21162;-51
2022/12/18 08:05:22;;;;;;;4.70;2.30;;;;;;;;;;1703402;82;21844;-50
2022/12/18 08:07:48;;;;;;;4.67;2.53;;;;;;;;;;1700069;82;21049;-51
2022/12/18 08:10:15;;;;;;;5.20;2.37;;;;;;;;;;1715891;81;21069;-51
2022/12/18 08:12:41;;;;;;;3.47;1.80;;;;;;;;;;1756797;79;21057;-51
2022/12/18 08:15:08;;;;;;;4.20;1.80;;;;;;;;;;1758177;80;21057;-51
2022/12/18 08:17:34;;;;;;;6.90;2.83;;;;;;;;;;1765698;79;21839;-50
2022/12/18 08:20:00;;;;;;;6.73;2.70;;;;;;;;;;1762077;80;20972;-51
2022/12/18 08:22:26;;;;;;;6.20;2.47;;;;;;;;;;1763035;79;21092;-50
2022/12/18 08:24:54;;;;;;;6.80;2.97;;;;;;;;;;1752059;79;21385;-51
2022/12/18 08:27:20;;;;;;;6.27;2.47;;;;;;;;;;1762712;79;21030;-51
2022/12/18 08:29:46;;;;;;;6.20;2.70;;;;;;;;;;1763532;79;21783;-51
2022/12/18 08:32:12;;;;;;;4.27;2.10;;;;;;;;;;1761304;80;21022;-50
2022/12/18 08:34:38;;;;;;;6.53;2.87;;;;;;;;;;1757455;79;21651;-50
2022/12/18 08:37:05;;;;;;;5.03;2.27;;;;;;;;;;1764590;79;21052;-51
2022/12/18 08:39:31;;;;;;;6.40;3.60;;;;;;;;;;1754528;79;21076;-51
2022/12/18 08:44:43;;;;;;;6.80;2.43;;;;;;;;;;1665453;84;21422;-51
2022/12/18 08:47:09;;;;;;;6.00;3.30;;;;;;;;;;1662946;83;21104;-51
2022/12/18 08:49:36;;;;;;;7.43;3.27;;;;;;;;;;1656609;83;21450;-51
2022/12/18 08:52:02;;;;;;;5.90;2.67;;;;;;;;;;1759784;79;21054;-50
2022/12/18 08:54:30;;;;;;;3.77;2.43;;;;;;;;;;1758382;79;21063;-51
2022/12/18 08:56:56;;;;;;;9.37;4.23;;;;;;;;;;1761269;79;20963;-51
2022/12/18 08:59:23;;;;;;;6.27;3.30;;;;;;;;;;1757824;79;21006;-51
2022/12/18 09:01:49;;;;;;;5.03;2.50;;;;;;;;;;1764917;79;20967;-51
2022/12/18 09:04:15;;;;;;;5.67;3.03;;;;;;;;;;1763539;79;21046;-51
2022/12/18 09:06:41;;;;;;;5.60;3.27;;;;;;;;;;1763454;79;21790;-51
2022/12/18 09:09:09;;;;;;;4.93;2.93;;;;;;;;;;1759666;79;20974;-51
2022/12/18 09:11:35;;;;;;;6.87;3.80;;;;;;;;;;1762329;79;20974;-51
2022/12/18 09:14:02;;;;;;;5.67;2.97;;;;;;;;;;1762474;80;20970;-51
2022/12/18 09:16:30;;;;;;;5.90;2.93;;;;;;;;;;1758979;79;21496;-50
2022/12/18 09:18:59;;;;;;;5.07;2.57;;;;;;;;;;1764323;79;21817;-51
2022/12/18 09:21:25;;;;;;;5.03;2.60;;;;;;;;;;1764280;79;21061;-51
2022/12/18 09:23:51;;;;;;;7.77;3.40;;;;;;;;;;1757603;79;21085;-52
2022/12/18 09:26:23;;;;;;;6.00;2.73;;;;;;;;;;1758440;79;21045;-53
2022/12/18 09:28:46;;;;;;;5.90;2.43;;;;;;;;;;1759977;79;21125;-53
2022/12/18 09:31:14;;;;;;;5.50;2.77;;;;;;;;;;1755882;79;21100;-51
2022/12/18 09:33:41;;;;;;;8.70;3.80;;;;;;;;;;1758877;79;21018;-51
2022/12/18 09:36:09;;;;;;;4.47;2.93;;;;;;;;;;1759392;79;21511;-52
2022/12/18 09:38:35;;;;;;;5.27;2.67;;;;;;;;;;1735443;80;21546;-50
2022/12/18 09:41:25;;;;;;;4.30;2.47;;;;;;;;;;1758633;79;21057;-51
2022/12/18 09:43:53;;;;;;;6.17;3.00;;;;;;;;;;1763375;79;21854;-51
2022/12/18 09:46:26;;;;;;;6.87;3.23;;;;;;;;;;1758344;79;21081;-51
2022/12/18 09:48:56;;;;;;;5.53;2.37;;;;;;;;;;1762680;79;26179;-52
2022/12/18 09:51:25;;;;;;;6.20;3.17;;;;;;;;;;1759192;80;21022;-51
2022/12/18 09:53:56;;;;;;;8.23;3.77;;;;;;;;;;1761184;80;21109;-52
2022/12/18 09:56:24;;;;;;;5.13;2.23;;;;;;;;;;1758447;79;21793;-51
2022/12/18 09:58:57;;;;;;;5.27;2.70;;;;;;;;;;1754688;79;21053;-51
2022/12/18 10:01:23;;;;;;;4.87;2.97;;;;;;;;;;1758618;79;21665;-51
2022/12/18 10:03:49;;;;;;;4.33;2.70;;;;;;;;;;1757258;79;21057;-52
2022/12/18 10:06:28;;;;;;;5.20;2.60;;;;;;;;;;1757572;79;21113;-52
2022/12/18 10:09:17;;;;;;;5.20;2.40;;;;;;;;;;1759118;79;21950;-52
2022/12/18 10:12:03;;;;;;;4.33;2.13;;;;;;;;;;1757703;79;21585;-51
2022/12/18 10:14:48;;;;;;;2.83;2.00;;;;;;;;;;1760869;79;21049;-53
2022/12/18 10:17:41;;;;;;;4.93;1.87;;;;;;;;;;1765259;79;21135;-52
2022/12/18 10:20:26;;;;;;;4.57;1.97;;;;;;;;;;1760812;79;21069;-52
2022/12/18 10:23:13;;;;;;;4.20;1.95;;;;;;;;;;1763519;79;22638;-51
2022/12/18 10:25:55;;;;;;;4.53;1.90;;;;;;;;;;1762111;79;20982;-52
2022/12/18 10:28:21;;;;;;;6.50;2.27;;;;;;;;;;1763983;79;20970;-52
2022/12/18 10:30:47;;;;;;;4.37;2.23;;;;;;;;;;1758170;79;21000;-54
2022/12/18 10:33:19;;;;;;;3.80;1.60;;;;;;;;;;1762224;79;21021;-53
2022/12/18 10:35:45;;;;;;;3.47;1.10;;;;;;;;;;1727345;80;21800;-53
2022/12/18 10:38:17;;;;;;;3.87;1.77;;;;;;;;;;1768285;79;21889;-52
2022/12/18 10:40:56;;;;;;;4.37;1.93;;;;;;;;;;1764362;79;20968;-53
2022/12/18 10:43:32;;;;;;;3.17;1.50;;;;;;;;;;1768040;79;20982;-52
2022/12/18 10:46:05;;;;;;;2.70;1.47;;;;;;;;;;1762338;79;21046;-52
2022/12/18 10:48:32;;;;;;;2.50;1.30;;;;;;;;;;1761270;79;22495;-51
2022/12/18 10:52:42;;;;;;;2.83;1.20;;;;;;;;;;1772460;78;27479;-51
2022/12/18 10:55:12;;;;;;;2.63;1.33;;;;;;;;;;1735083;80;21040;-50
2022/12/18 10:57:38;;;;;;;2.80;1.30;;;;;;;;;;1735151;80;21929;-50
2022/12/18 11:00:27;;;;;;;3.27;1.30;;;;;;;;;;1737259;80;20967;-51
2022/12/18 11:02:53;;;;;;;3.00;1.53;;;;;;;;;;1728829;80;21437;-49
2022/12/18 11:05:26;;;;;;;3.43;1.50;;;;;;;;;;1732995;80;21082;-50
2022/12/18 11:07:54;;;;;;;3.30;1.77;;;;;;;;;;1729175;80;21064;-50
2022/12/18 11:10:22;;;;;;;4.67;1.50;;;;;;;;;;1732103;80;21831;-49
2022/12/18 11:12:48;;;;;;;2.63;1.60;;;;;;;;;;1737473;80;21367;-49
2022/12/18 11:15:18;;;;;;;2.37;1.80;;;;;;;;;;1741194;80;21085;-50
2022/12/18 11:17:44;;;;;;;3.27;1.63;;;;;;;;;;1726736;80;21042;-50
2022/12/18 11:20:31;;;;;;;2.30;1.60;;;;;;;;;;1681787;80;22377;-51
2022/12/18 11:23:05;;;;;;;2.77;1.40;;;;;;;;;;1729919;80;21854;-50
2022/12/18 11:25:32;;;;;;;4.93;2.53;;;;;;;;;;1727626;80;21025;-49
2022/12/18 11:28:00;;;;;;;2.47;1.70;;;;;;;;;;1733547;80;21072;-50
2022/12/18 11:30:29;;;;;;;4.23;1.30;;;;;;;;;;1729893;80;21034;-49
2022/12/18 11:33:14;;;;;;;2.93;1.47;;;;;;;;;;1732401;80;21111;-49
2022/12/18 11:35:42;;;;;;;;;;;;;;;;;;1706784;80;21863;-51
2022/12/18 11:38:14;;;;;;;3.17;1.40;;;;;;;;;;1733294;80;21074;-51
2022/12/18 11:40:42;;;;;;;2.47;1.13;;;;;;;;;;1736222;80;21348;-49
2022/12/18 11:43:25;;;;;;;3.10;1.40;;;;;;;;;;1729266;80;21061;-52
2022/12/18 11:45:54;;;;;;;2.40;1.40;;;;;;;;;;1732691;80;21168;-50
2022/12/18 11:48:45;;;;;;;2.37;1.10;;;;;;;;;;1727092;80;21846;-49
2022/12/18 11:51:14;;;;;;;4.17;1.40;;;;;;;;;;1732354;80;21074;-49
2022/12/18 11:53:40;;;;;;;2.87;1.10;;;;;;;;;;1729014;80;21084;-49
2022/12/18 11:56:32;;;;;;;2.63;1.40;;;;;;;;;;1726594;80;21116;-49
2022/12/18 11:59:19;;;;;;;3.10;1.40;;;;;;;;;;1728762;80;21422;-49
2022/12/18 12:01:55;;;;;;;3.37;1.50;;;;;;;;;;1729123;80;21822;-50
2022/12/18 12:04:24;;;;;;;1.77;1.07;;;;;;;;;;1732719;80;21681;-51
2022/12/18 12:06:54;;;;;;;2.70;1.30;;;;;;;;;;1727361;80;21541;-49
2022/12/18 12:09:24;;;;;;;3.17;1.63;;;;;;;;;;1728318;80;21006;-49
2022/12/18 12:11:54;;;;;;;4.97;1.83;;;;;;;;;;1741871;80;21074;-51
2022/12/18 12:14:27;;;;;;;3.43;1.93;;;;;;;;;;1726630;81;21750;-50
2022/12/18 12:17:00;;;;;;;3.70;1.57;;;;;;;;;;1736900;80;21081;-50
2022/12/18 12:19:42;;;;;;;3.50;1.67;;;;;;;;;;1730960;80;21111;-50
2022/12/18 12:22:12;;;;;;;2.73;1.77;;;;;;;;;;1728078;80;21112;-51
2022/12/18 12:24:48;;;;;;;2.60;1.30;;;;;;;;;;1732505;80;21025;-50
2022/12/18 12:27:20;;;;;;;2.97;1.60;;;;;;;;;;1731943;80;21825;-50
2022/12/18 12:30:02;;;;;;;2.87;1.57;;;;;;;;;;1726903;80;21067;-50
2022/12/18 12:33:00;;;;;;;4.07;1.33;;;;;;;;;;1727719;80;21092;-49
2022/12/18 12:35:54;;;;;;;2.93;1.30;;;;;;;;;;1736932;80;21527;-49
2022/12/18 12:38:33;;;;;;;3.27;1.30;;;;;;;;;;1728467;80;21065;-50
2022/12/18 12:41:02;;;;;;;2.77;1.20;;;;;;;;;;1728703;80;22267;-50
2022/12/18 12:43:35;;;;;;;2.77;1.40;;;;;;;;;;1731454;80;21047;-48
2022/12/18 12:46:12;;;;;;;3.10;1.50;;;;;;;;;;1735694;80;21105;-49
2022/12/18 12:48:49;;;;;;;2.30;1.30;;;;;;;;;;1730654;80;22117;-49
2022/12/18 12:51:31;;;;;;;2.53;1.23;;;;;;;;;;1731087;80;21282;-50
2022/12/18 12:53:58;;;;;;;1.93;1.23;;;;;;;;;;1736766;80;21795;-50
2022/12/18 12:56:26;;;;;;;3.13;1.40;;;;;;;;;;1730387;80;21203;-50
2022/12/18 12:59:14;;;;;;;2.53;1.23;;;;;;;;;;1733576;80;21081;-49
2022/12/18 13:01:59;;;;;;;2.10;1.23;;;;;;;;;;1729000;80;21143;-51
2022/12/18 13:04:46;;;;;;;;;;;;;;;;;;1726953;80;21534;-50
2022/12/18 13:07:16;;;;;;;4.60;1.77;;;;;;;;;;1740361;80;21821;-49
2022/12/18 13:10:15;;;;;;;3.03;1.37;;;;;;;;;;1733130;80;21531;-51
2022/12/18 13:12:58;;;;;;;2.87;1.00;;;;;;;;;;1736660;80;21015;-50
2022/12/18 13:15:30;;;;;;;3.50;1.30;;;;;;;;;;1729199;80;21054;-50
2022/12/18 13:18:12;;;;;;;4.10;1.60;;;;;;;;;;1731795;80;21077;-50
2022/12/18 13:20:49;;;;;;;2.73;1.30;;;;;;;;;;1728945;80;21833;-51
2022/12/18 13:23:27;;;;;;;3.83;1.70;;;;;;;;;;1733888;80;21033;-50
2022/12/18 13:26:10;;;;;;;2.97;1.53;;;;;;;;;;1731768;80;21354;-50
2022/12/18 13:28:49;;;;;;;3.07;1.60;;;;;;;;;;1735747;80;21053;-50
2022/12/18 13:31:42;;;;;;;2.67;1.57;;;;;;;;;;1731824;80;21081;-49
2022/12/18 13:34:25;;;;;;;3.40;1.67;;;;;;;;;;1729864;80;21050;-49
2022/12/18 13:36:53;;;;;;;3.47;1.67;;;;;;;;;;1728241;80;21097;-52
2022/12/18 13:39:22;;;;;;;3.90;2.20;;;;;;;;;;1729905;80;21049;-50
2022/12/18 13:41:52;;;;;;;2.10;1.00;;;;;;;;;;1729103;80;21018;-49
2022/12/18 13:44:31;;;;;;;2.57;1.07;;;;;;;;;;1712067;80;20986;-49
2022/12/18 13:46:57;;;;;;;2.80;1.23;;;;;;;;;;1732513;80;21800;-49
2022/12/18 13:49:38;;;;;;;4.43;1.60;;;;;;;;;;1723477;80;20966;-49
2022/12/18 13:52:16;;;;;;;3.23;1.60;;;;;;;;;;1713226;80;21383;-50
2022/12/18 13:54:42;;;;;;;2.53;1.27;;;;;;;;;;1736965;80;20978;-50
2022/12/18 13:57:28;;;;;;;3.50;1.40;;;;;;;;;;1747690;80;21021;-48
2022/12/18 13:59:54;;;;;;;4.23;1.57;;;;;;;;;;1734207;80;21803;-49
2022/12/18 14:02:22;;;;;;;3.97;1.43;;;;;;;;;;1747576;80;20969;-50
2022/12/18 14:04:49;;;;;;;2.47;1.00;;;;;;;;;;1742460;80;21024;-49
2022/12/18 14:07:17;;;;;;;1.90;1.30;;;;;;;;;;1736767;80;22202;-52
2022/12/18 14:09:46;;;;;;;3.03;1.20;;;;;;;;;;1739199;80;21017;-49
2022/12/18 14:15:02;;;;;;;2.47;1.07;;;;;;;;;;1740231;80;20966;-49
2022/12/18 14:17:28;;;;;;;2.07;1.10;;;;;;;;;;1737836;80;22049;-49
2022/12/18 14:19:55;;;;;;;2.77;0.97;;;;;;;;;;1737493;80;21108;-50
2022/12/18 14:22:29;;;;;;;2.50;1.23;;;;;;;;;;1708428;80;21625;-50
2022/12/18 14:25:15;;;;;;;2.63;1.30;;;;;;;;;;1735639;80;23742;-49
2022/12/18 14:27:43;;;;;;;4.50;1.70;;;;;;;;;;1711299;80;21120;-48
2022/12/18 14:30:32;;;;;;;5.23;2.20;;;;;;;;;;1735797;80;21073;-52
2022/12/18 14:33:10;;;;;;;5.07;2.57;;;;;;;;;;1738295;80;21111;-49
2022/12/18 14:35:39;;;;;;;4.27;2.50;;;;;;;;;;1737123;80;21041;-50
2022/12/18 14:39:28;;;;;;;7.47;3.23;;;;;;;;;;1778278;78;28558;-49
2022/12/18 14:41:54;;;;;;;4.23;2.57;;;;;;;;;;1752470;80;21080;-50
2022/12/18 14:44:21;;;;;;;7.07;3.47;;;;;;;;;;1742930;80;21865;-49
2022/12/18 14:46:48;;;;;;;5.20;2.60;;;;;;;;;;1737708;80;21124;-50
2022/12/18 14:49:23;;;;;;;6.17;2.57;;;;;;;;;;1746503;80;21033;-49
2022/12/18 14:51:54;;;;;;;5.30;2.43;;;;;;;;;;1751747;80;21057;-51
2022/12/18 14:54:21;;;;;;;7.43;3.10;;;;;;;;;;1739528;80;21051;-50
2022/12/18 14:56:48;;;;;;;5.87;2.20;;;;;;;;;;1738244;80;21849;-50
2022/12/18 14:59:20;;;;;;;6.20;2.77;;;;;;;;;;1733966;80;21492;-50
2022/12/18 15:01:49;;;;;;;5.23;2.03;;;;;;;;;;1733047;80;21559;-50
2022/12/18 15:04:27;;;;;;;4.00;2.03;;;;;;;;;;1729516;80;21028;-50
2022/12/18 15:07:04;;;;;;;3.60;1.53;;;;;;;;;;1736032;80;21061;-49
2022/12/18 15:09:30;;;;;;;4.63;2.17;;;;;;;;;;1726798;80;21800;-50
2022/12/18 15:11:58;;;;;;;3.53;1.33;;;;;;;;;;1730892;80;21061;-50
2022/12/18 15:14:34;;;;;;;2.93;1.47;;;;;;;;;;1732697;80;21025;-49
2022/12/18 15:17:02;;;;;;;2.10;1.10;;;;;;;;;;1726433;80;21077;-50
2022/12/18 15:19:34;;;;;;;3.60;1.80;;;;;;;;;;1727241;80;21080;-49
2022/12/18 15:22:01;;;;;;;3.97;1.93;;;;;;;;;;1699747;80;21982;-49